createdAt,value
2018-06-02T00:00:19.553Z,2.77
2018-06-02T00:02:47.261Z,2.70
2018-06-02T00:05:14.945Z,2.37
2018-06-02T00:07:42.699Z,2.90
2018-06-02T00:10:10.522Z,2.40
2018-06-02T00:12:38.182Z,2.50
2018-06-02T00:15:05.971Z,2.50
2018-06-02T00:17:33.651Z,2.83
2018-06-02T00:20:01.355Z,2.80
2018-06-02T00:22:29.109Z,2.70
2018-06-02T00:24:56.737Z,2.67
2018-06-02T00:27:24.338Z,3.27
2018-06-02T00:29:52.229Z,3.20
2018-06-02T00:32:20.248Z,3.00
2018-06-02T00:34:48.139Z,3.40
2018-06-02T00:37:15.918Z,2.93
2018-06-02T00:39:43.753Z,3.07
2018-06-02T00:42:11.700Z,2.90
2018-06-02T00:44:39.813Z,2.77
2018-06-02T00:47:07.625Z,2.97
2018-06-02T00:49:35.679Z,2.57
2018-06-02T00:52:03.742Z,3.50
2018-06-02T00:54:37.461Z,3.27
2018-06-02T00:57:05.275Z,3.10
2018-06-02T00:59:33.111Z,2.60
2018-06-02T01:02:00.764Z,2.60
2018-06-02T01:04:28.501Z,2.93
2018-06-02T01:06:56.384Z,3.20
2018-06-02T01:09:24.266Z,3.27
2018-06-02T01:11:51.813Z,2.63
2018-06-02T01:14:19.413Z,3.03
2018-06-02T01:16:47.007Z,2.90
2018-06-02T01:19:14.677Z,2.63
2018-06-02T01:21:42.265Z,2.97
2018-06-02T01:24:09.870Z,2.60
2018-06-02T01:26:37.475Z,2.80
2018-06-02T01:29:05.068Z,3.50
2018-06-02T01:31:32.998Z,2.47
2018-06-02T01:34:00.604Z,2.70
2018-06-02T01:36:29.070Z,2.50
2018-06-02T01:38:58.276Z,2.67
2018-06-02T01:41:27.434Z,2.43
2018-06-02T01:43:55.561Z,2.43
2018-06-02T01:46:23.111Z,2.70
2018-06-02T01:48:50.930Z,2.87
2018-06-02T01:51:18.705Z,3.03
2018-06-02T01:53:46.568Z,2.97
2018-06-02T01:56:14.250Z,2.90
2018-06-02T01:58:41.934Z,2.90
2018-06-02T02:01:09.737Z,2.60
2018-06-02T02:03:37.396Z,2.60
2018-06-02T02:06:05.159Z,2.53
2018-06-02T02:08:32.740Z,3.20
2018-06-02T02:11:00.458Z,2.77
2018-06-02T02:13:28.020Z,3.23
2018-06-02T02:15:55.718Z,2.87
2018-06-02T02:18:23.372Z,3.10
2018-06-02T02:20:50.972Z,2.57
2018-06-02T02:23:18.887Z,3.10
2018-06-02T02:25:46.486Z,2.90
2018-06-02T02:28:14.189Z,3.00
2018-06-02T02:30:41.818Z,3.17
2018-06-02T02:33:09.804Z,3.13
2018-06-02T02:35:37.376Z,2.87
2018-06-02T02:38:05.034Z,3.27
2018-06-02T02:40:33.142Z,3.63
2018-06-02T02:43:01.119Z,2.93
2018-06-02T02:45:28.897Z,3.43
2018-06-02T02:47:57.620Z,2.93
2018-06-02T02:50:25.839Z,2.77
2018-06-02T02:52:53.517Z,3.10
2018-06-02T02:55:21.265Z,3.00
2018-06-02T02:57:48.979Z,3.13
2018-06-02T03:00:16.604Z,3.10
2018-06-02T03:02:44.278Z,2.93
2018-06-02T03:05:11.874Z,3.30
2018-06-02T03:07:39.802Z,3.00
2018-06-02T03:10:07.616Z,2.60
2018-06-02T03:12:35.406Z,2.73
2018-06-02T03:15:03.216Z,3.57
2018-06-02T03:17:30.898Z,2.80
2018-06-02T03:19:58.799Z,3.10
2018-06-02T03:22:26.592Z,3.17
2018-06-02T03:24:54.383Z,2.90
2018-06-02T03:27:22.652Z,3.30
2018-06-02T03:29:50.310Z,2.83
2018-06-02T03:32:18.043Z,3.10
2018-06-02T03:34:45.660Z,3.23
2018-06-02T03:37:13.325Z,2.60
2018-06-02T03:39:41.013Z,3.27
2018-06-02T03:42:08.618Z,3.03
2018-06-02T03:44:36.289Z,2.60
2018-06-02T03:47:04.539Z,3.07
2018-06-02T03:49:32.258Z,3.17
2018-06-02T03:51:59.884Z,2.73
2018-06-02T03:54:27.490Z,3.10
2018-06-02T03:56:55.056Z,2.97
2018-06-02T03:59:22.617Z,2.90
2018-06-02T04:01:50.169Z,2.73
2018-06-02T04:04:17.718Z,2.87
2018-06-02T04:06:45.291Z,2.70
2018-06-02T04:09:13.460Z,3.23
2018-06-02T04:11:41.138Z,2.80
2018-06-02T04:14:09.111Z,2.83
2018-06-02T04:16:36.702Z,2.67
2018-06-02T04:19:04.642Z,3.40
2018-06-02T04:21:32.491Z,3.00
2018-06-02T04:24:00.422Z,3.00
2018-06-02T04:26:28.127Z,3.20
2018-06-02T04:28:56.263Z,3.10
2018-06-02T04:31:23.851Z,2.77
2018-06-02T04:33:51.420Z,3.07
2018-06-02T04:36:18.982Z,4.07
2018-06-02T04:38:46.603Z,3.10
2018-06-02T04:41:14.172Z,3.00
2018-06-02T04:43:41.677Z,3.17
2018-06-02T04:46:09.205Z,3.03
2018-06-02T04:48:36.736Z,2.43
2018-06-02T04:51:04.307Z,2.73
2018-06-02T04:53:31.809Z,3.03
2018-06-02T04:55:59.305Z,2.97
2018-06-02T04:58:26.861Z,2.73
2018-06-02T05:00:54.367Z,2.80
2018-06-02T05:03:21.881Z,2.70
2018-06-02T05:05:49.437Z,2.83
2018-06-02T05:08:16.989Z,2.17
2018-06-02T05:10:44.524Z,2.90
2018-06-02T05:13:12.025Z,2.70
2018-06-02T05:15:39.552Z,2.60
2018-06-02T05:18:07.048Z,3.20
2018-06-02T05:20:34.551Z,3.00
2018-06-02T05:23:02.098Z,2.30
2018-06-02T05:25:30.549Z,3.00
2018-06-02T05:27:58.049Z,2.50
2018-06-02T05:30:25.574Z,2.80
2018-06-02T05:32:53.068Z,2.87
2018-06-02T05:35:20.627Z,3.27
2018-06-02T05:37:48.096Z,2.60
2018-06-02T05:40:15.626Z,3.00
2018-06-02T05:42:43.133Z,3.07
2018-06-02T05:45:10.636Z,2.90
2018-06-02T05:47:38.133Z,2.77
2018-06-02T05:50:05.644Z,3.17
2018-06-02T05:52:33.198Z,2.60
2018-06-02T05:55:00.743Z,2.90
2018-06-02T05:57:28.748Z,3.40
2018-06-02T05:59:56.307Z,3.13
2018-06-02T06:02:23.805Z,2.50
2018-06-02T06:04:51.577Z,3.33
2018-06-02T06:07:19.097Z,3.10
2018-06-02T06:09:46.599Z,3.13
2018-06-02T06:12:14.337Z,2.90
2018-06-02T06:14:42.139Z,3.17
2018-06-02T06:17:09.847Z,3.20
2018-06-02T06:19:37.442Z,2.70
2018-06-02T06:22:04.900Z,2.93
2018-06-02T06:24:32.417Z,3.40
2018-06-02T06:27:00.456Z,3.07
2018-06-02T06:29:27.989Z,3.20
2018-06-02T06:31:55.590Z,3.13
2018-06-02T06:34:23.118Z,3.20
2018-06-02T06:36:50.612Z,3.13
2018-06-02T06:39:18.278Z,3.03
2018-06-02T06:41:45.836Z,2.90
2018-06-02T06:44:13.393Z,3.37
2018-06-02T06:46:41.093Z,3.03
2018-06-02T06:49:08.623Z,3.10
2018-06-02T06:51:36.413Z,2.50
2018-06-02T06:54:04.202Z,2.90
2018-06-02T06:56:31.924Z,3.47
2018-06-02T06:58:59.489Z,3.20
2018-06-02T07:01:26.987Z,2.90
2018-06-02T07:03:54.483Z,3.07
2018-06-02T07:06:21.973Z,2.80
2018-06-02T07:08:49.515Z,3.03
2018-06-02T07:11:17.001Z,2.73
2018-06-02T07:13:44.491Z,3.50
2018-06-02T07:16:11.982Z,3.00
2018-06-02T07:18:39.496Z,2.80
2018-06-02T07:21:06.991Z,3.60
2018-06-02T07:23:34.488Z,3.23
2018-06-02T07:26:01.996Z,3.30
2018-06-02T07:28:29.565Z,3.70
2018-06-02T07:30:57.119Z,3.53
2018-06-02T07:33:24.653Z,3.20
2018-06-02T07:35:52.157Z,3.73
2018-06-02T07:38:19.669Z,4.13
2018-06-02T07:40:47.189Z,4.37
2018-06-02T07:43:14.966Z,3.77
2018-06-02T07:45:42.614Z,3.30
2018-06-02T07:48:10.362Z,3.57
2018-06-02T07:50:38.265Z,3.80
2018-06-02T07:53:05.918Z,3.13
2018-06-02T07:55:33.573Z,4.13
2018-06-02T07:58:01.283Z,3.67
2018-06-02T08:00:29.325Z,3.37
2018-06-02T08:02:57.365Z,3.00
2018-06-02T08:05:25.024Z,3.00
2018-06-02T08:07:53.023Z,3.97
2018-06-02T08:10:20.724Z,3.70
2018-06-02T08:12:48.372Z,3.30
2018-06-02T08:15:15.888Z,3.80
2018-06-02T08:17:43.407Z,3.10
2018-06-02T08:20:10.915Z,4.00
2018-06-02T08:22:38.448Z,3.77
2018-06-02T08:25:05.963Z,4.10
2018-06-02T08:27:33.470Z,3.67
2018-06-02T08:30:00.978Z,3.80
2018-06-02T08:32:29.161Z,3.80
2018-06-02T08:34:56.861Z,3.23
2018-06-02T08:37:24.737Z,3.20
2018-06-02T08:39:52.225Z,3.90
2018-06-02T08:42:19.972Z,3.87
2018-06-02T08:44:47.677Z,3.80
2018-06-02T08:47:15.324Z,3.97
2018-06-02T08:49:42.933Z,3.53
2018-06-02T08:52:10.553Z,3.40
2018-06-02T08:54:38.053Z,2.93
2018-06-02T08:57:05.563Z,3.40
2018-06-02T08:59:33.070Z,3.73
2018-06-02T09:02:00.549Z,3.50
2018-06-02T09:04:28.063Z,3.47
2018-06-02T09:06:56.145Z,3.33
2018-06-02T09:09:23.964Z,4.33
2018-06-02T09:11:51.661Z,3.23
2018-06-02T09:14:19.276Z,3.93
2018-06-02T09:16:46.769Z,3.93
2018-06-02T09:19:14.430Z,3.63
2018-06-02T09:21:42.094Z,3.03
2018-06-02T09:24:10.325Z,2.90
2018-06-02T09:26:37.835Z,2.90
2018-06-02T09:29:05.632Z,2.77
2018-06-02T09:31:33.441Z,2.97
2018-06-02T09:34:00.939Z,2.83
2018-06-02T09:36:28.593Z,2.97
2018-06-02T09:38:56.857Z,3.60
2018-06-02T09:41:24.350Z,3.60
2018-06-02T09:43:51.853Z,3.13
2018-06-02T09:46:19.341Z,4.17
2018-06-02T09:48:46.841Z,3.23
2018-06-02T09:51:14.340Z,3.30
2018-06-02T09:53:41.835Z,3.23
2018-06-02T09:56:09.381Z,2.73
2018-06-02T09:58:36.897Z,2.57
2018-06-02T10:01:04.395Z,3.10
2018-06-02T10:03:31.995Z,2.60
2018-06-02T10:05:59.651Z,2.67
2018-06-02T10:08:27.152Z,2.20
2018-06-02T10:10:54.684Z,3.20
2018-06-02T10:13:22.175Z,3.07
2018-06-02T10:15:49.671Z,2.80
2018-06-02T10:18:17.170Z,2.73
2018-06-02T10:20:44.655Z,2.27
2018-06-02T10:23:12.157Z,2.60
2018-06-02T10:25:39.667Z,2.33
2018-06-02T10:28:07.162Z,2.67
2018-06-02T10:30:34.663Z,2.47
2018-06-02T10:33:02.156Z,2.93
2018-06-02T10:35:29.740Z,5.70
2018-06-02T10:37:57.213Z,3.73
2018-06-02T10:40:24.828Z,2.73
2018-06-02T10:42:52.485Z,3.00
2018-06-02T10:45:19.961Z,3.10
2018-06-02T10:47:47.468Z,3.00
2018-06-02T10:50:14.953Z,2.40
2018-06-02T10:52:42.659Z,3.03
2018-06-02T10:55:10.507Z,3.57
2018-06-02T10:57:38.357Z,2.73
2018-06-02T11:00:06.011Z,2.40
2018-06-02T11:02:33.516Z,2.77
2018-06-02T11:05:01.319Z,2.90
2018-06-02T11:07:29.026Z,2.80
2018-06-02T11:09:56.523Z,2.60
2018-06-02T11:12:24.279Z,2.20
2018-06-02T11:14:52.164Z,3.00
2018-06-02T11:17:19.656Z,2.80
2018-06-02T11:19:47.177Z,2.87
2018-06-02T11:22:14.686Z,2.77
2018-06-02T11:24:42.242Z,2.20
2018-06-02T11:27:09.729Z,2.87
2018-06-02T11:29:37.236Z,2.40
2018-06-02T11:32:04.794Z,2.50
2018-06-02T11:34:32.291Z,2.20
2018-06-02T11:36:59.792Z,2.53
2018-06-02T11:39:27.272Z,3.07
2018-06-02T11:41:54.752Z,3.00
2018-06-02T11:44:22.292Z,2.77
2018-06-02T11:46:49.826Z,2.60
2018-06-02T11:49:17.320Z,2.37
2018-06-02T11:51:44.812Z,2.20
2018-06-02T11:54:12.339Z,2.53
2018-06-02T11:56:40.332Z,2.20
2018-06-02T11:59:07.849Z,2.33
2018-06-02T12:01:35.586Z,2.50
2018-06-02T12:04:03.281Z,2.40
2018-06-02T12:06:30.812Z,2.30
2018-06-02T12:08:58.293Z,3.00
2018-06-02T12:11:25.846Z,2.30
2018-06-02T12:13:53.355Z,2.43
2018-06-02T12:16:20.865Z,2.47
2018-06-02T12:18:48.406Z,2.60
2018-06-02T12:21:15.909Z,2.67
2018-06-02T12:23:43.401Z,2.80
2018-06-02T12:26:10.910Z,2.37
2018-06-02T12:28:38.593Z,2.37
2018-06-02T12:31:06.103Z,2.23
2018-06-02T12:33:33.608Z,2.23
2018-06-02T12:36:01.096Z,2.13
2018-06-02T12:38:28.643Z,1.63
2018-06-02T12:40:56.137Z,2.30
2018-06-02T12:43:23.845Z,1.93
2018-06-02T12:45:51.354Z,1.93
2018-06-02T12:48:18.837Z,2.20
2018-06-02T12:50:46.645Z,2.20
2018-06-02T12:53:14.172Z,2.00
2018-06-02T12:55:41.671Z,2.20
2018-06-02T12:58:09.167Z,2.30
2018-06-02T13:00:36.717Z,2.00
2018-06-02T13:03:04.246Z,2.37
2018-06-02T13:05:31.861Z,2.53
2018-06-02T13:07:59.352Z,2.30
2018-06-02T13:10:26.836Z,2.17
2018-06-02T13:12:54.324Z,2.17
2018-06-02T13:15:21.822Z,2.30
2018-06-02T13:17:49.386Z,2.80
2018-06-02T13:20:16.885Z,2.10
2018-06-02T13:22:44.428Z,2.43
2018-06-02T13:25:12.028Z,2.80
2018-06-02T13:27:39.573Z,1.80
2018-06-02T13:30:07.349Z,1.90
2018-06-02T13:32:35.219Z,2.20
2018-06-02T13:35:02.900Z,1.87
2018-06-02T13:37:30.583Z,2.00
2018-06-02T13:39:58.128Z,2.27
2018-06-02T13:42:25.834Z,2.70
2018-06-02T13:44:53.487Z,2.50
2018-06-02T13:47:20.999Z,2.77
2018-06-02T13:49:48.795Z,2.13
2018-06-02T13:52:16.446Z,2.30
2018-06-02T13:54:44.148Z,2.23
2018-06-02T13:57:11.949Z,2.00
2018-06-02T13:59:39.657Z,2.40
2018-06-02T14:02:07.144Z,2.50
2018-06-02T14:04:34.908Z,2.03
2018-06-02T14:07:02.763Z,2.03
2018-06-02T14:09:30.271Z,2.00
2018-06-02T14:11:57.776Z,1.63
2018-06-02T14:14:25.270Z,1.70
2018-06-02T14:16:52.809Z,1.63
2018-06-02T14:19:20.309Z,2.03
2018-06-02T14:21:47.896Z,1.90
2018-06-02T14:24:15.747Z,1.80
2018-06-02T14:26:43.302Z,1.80
2018-06-02T14:29:10.790Z,1.97
2018-06-02T14:31:38.282Z,2.03
2018-06-02T14:34:05.790Z,1.93
2018-06-02T14:36:33.291Z,1.80
2018-06-02T14:39:01.080Z,7.73
2018-06-02T14:41:28.634Z,2.23
2018-06-02T14:43:56.138Z,1.70
2018-06-02T14:46:23.645Z,2.63
2018-06-02T14:48:51.140Z,1.73
2018-06-02T14:51:18.645Z,1.70
2018-06-02T14:53:46.151Z,1.60
2018-06-02T14:56:13.683Z,2.10
2018-06-02T14:58:41.322Z,2.30
2018-06-02T15:01:08.811Z,1.70
2018-06-02T15:03:36.306Z,1.77
2018-06-02T15:06:03.875Z,1.50
2018-06-02T15:08:31.376Z,1.63
2018-06-02T15:10:58.950Z,1.70
2018-06-02T15:13:26.456Z,1.70
2018-06-02T15:15:53.976Z,1.80
2018-06-02T15:18:21.513Z,2.00
2018-06-02T15:20:49.068Z,1.83
2018-06-02T15:23:16.562Z,2.10
2018-06-02T15:25:44.065Z,2.77
2018-06-02T15:28:11.585Z,1.40
2018-06-02T15:30:39.129Z,2.20
2018-06-02T15:33:06.666Z,1.40
2018-06-02T15:35:34.157Z,1.40
2018-06-02T15:38:01.666Z,1.87
2018-06-02T15:40:29.108Z,1.63
2018-06-02T15:42:56.727Z,2.50
2018-06-02T15:45:24.212Z,1.73
2018-06-02T15:47:51.713Z,1.93
2018-06-02T15:50:19.212Z,1.80
2018-06-02T15:52:46.720Z,1.67
2018-06-02T15:55:14.233Z,1.60
2018-06-02T15:57:41.722Z,2.10
2018-06-02T16:00:09.228Z,1.50
2018-06-02T16:02:36.812Z,1.47
2018-06-02T16:05:04.302Z,1.50
2018-06-02T16:07:31.904Z,1.43
2018-06-02T16:09:59.362Z,1.87
2018-06-02T16:12:26.886Z,2.03
2018-06-02T16:14:54.379Z,1.60
2018-06-02T16:17:21.893Z,1.60
2018-06-02T16:19:49.385Z,1.77
2018-06-02T16:22:16.894Z,1.77
2018-06-02T16:24:44.384Z,1.80
2018-06-02T16:27:11.901Z,2.47
2018-06-02T16:29:39.418Z,1.73
2018-06-02T16:32:06.867Z,1.70
2018-06-02T16:34:34.934Z,1.70
2018-06-02T16:37:02.432Z,1.73
2018-06-02T16:39:29.888Z,1.87
2018-06-02T16:41:57.376Z,1.43
2018-06-02T16:44:24.870Z,1.70
2018-06-02T16:46:52.374Z,1.80
2018-06-02T16:49:19.870Z,1.60
2018-06-02T16:51:47.320Z,1.43
2018-06-02T16:54:14.761Z,1.87
2018-06-02T16:56:42.222Z,1.63
2018-06-02T16:59:09.718Z,1.80
2018-06-02T17:01:37.211Z,1.53
2018-06-02T17:04:04.734Z,1.80
2018-06-02T17:06:32.656Z,1.57
2018-06-02T17:09:00.160Z,1.60
2018-06-02T17:11:27.594Z,1.80
2018-06-02T17:13:55.038Z,2.03
2018-06-02T17:16:22.537Z,2.90
2018-06-02T17:18:50.295Z,6.13
2018-06-02T17:21:17.995Z,4.77
2018-06-02T17:23:45.605Z,2.20
2018-06-02T17:26:13.305Z,2.40
2018-06-02T17:28:40.749Z,2.53
2018-06-02T17:31:08.209Z,1.80
2018-06-02T17:33:35.665Z,2.00
2018-06-02T17:36:03.156Z,2.30
2018-06-02T17:38:30.644Z,1.90
2018-06-02T17:40:58.084Z,1.90
2018-06-02T17:43:25.588Z,2.00
2018-06-02T17:45:53.062Z,1.90
2018-06-02T17:48:20.530Z,1.77
2018-06-02T17:50:47.980Z,2.10
2018-06-02T17:53:15.432Z,1.87
2018-06-02T17:55:42.877Z,1.77
2018-06-02T17:58:10.336Z,2.27
2018-06-02T18:00:37.789Z,2.43
2018-06-02T18:03:05.251Z,2.00
2018-06-02T18:05:32.696Z,2.23
2018-06-02T18:08:00.164Z,2.10
2018-06-02T18:10:28.057Z,2.20
2018-06-02T18:12:55.495Z,2.20
2018-06-02T18:15:22.933Z,2.50
2018-06-02T18:17:50.521Z,3.37
2018-06-02T18:20:17.967Z,2.70
2018-06-02T18:22:45.416Z,2.10
2018-06-02T18:25:12.877Z,9.20
2018-06-02T18:27:40.329Z,4.40
2018-06-02T18:30:07.772Z,2.43
2018-06-02T18:32:35.212Z,1.97
2018-06-02T18:35:02.680Z,4.27
2018-06-02T18:37:30.122Z,7.57
2018-06-02T18:39:57.569Z,4.63
2018-06-02T18:42:25.069Z,2.67
2018-06-02T18:44:52.560Z,4.13
2018-06-02T18:47:20.014Z,20.97
2018-06-02T18:49:47.626Z,9.80
2018-06-02T18:52:15.426Z,3.23
2018-06-02T18:54:42.934Z,4.10
2018-06-02T18:57:10.414Z,6.83
2018-06-02T18:59:37.873Z,10.60
2018-06-02T19:02:05.341Z,6.50
2018-06-02T19:04:32.785Z,5.70
2018-06-02T19:07:00.258Z,4.53
2018-06-02T19:09:27.702Z,3.70
2018-06-02T19:11:55.268Z,83.03
2018-06-02T19:14:22.788Z,95.17
2018-06-02T19:16:50.365Z,52.57
2018-06-02T19:19:17.900Z,33.77
2018-06-02T19:21:45.694Z,17.03
2018-06-02T19:24:13.347Z,7.83
2018-06-02T19:26:40.855Z,6.70
2018-06-02T19:29:08.658Z,11.70
2018-06-02T19:31:36.150Z,8.50
2018-06-02T19:34:03.681Z,16.47
2018-06-02T19:36:31.153Z,29.47
2018-06-02T19:38:58.698Z,35.60
2018-06-02T19:41:26.174Z,56.33
2018-06-02T19:43:53.660Z,37.93
2018-06-02T19:46:21.165Z,33.33
2018-06-02T19:48:48.641Z,26.40
2018-06-02T19:51:16.101Z,16.77
2018-06-02T19:53:43.581Z,16.40
2018-06-02T19:56:11.040Z,20.67
2018-06-02T19:58:38.501Z,26.97
2018-06-02T20:01:06.121Z,21.57
2018-06-02T20:03:33.627Z,15.67
2018-06-02T20:06:01.104Z,23.70
2018-06-02T20:08:28.658Z,28.07
2018-06-02T20:10:56.267Z,34.73
2018-06-02T20:13:23.949Z,18.33
2018-06-02T20:15:51.568Z,20.73
2018-06-02T20:18:19.240Z,15.83
2018-06-02T20:20:46.693Z,15.70
2018-06-02T20:23:14.173Z,20.07
2018-06-02T20:25:41.628Z,17.90
2018-06-02T20:28:09.085Z,13.33
2018-06-02T20:30:36.540Z,8.33
2018-06-02T20:33:04.124Z,8.60
2018-06-02T20:35:31.589Z,9.33
2018-06-02T20:37:59.038Z,6.57
2018-06-02T20:40:26.483Z,6.20
2018-06-02T20:42:53.930Z,5.30
2018-06-02T20:45:21.377Z,4.33
2018-06-02T20:47:48.864Z,5.97
2018-06-02T20:50:16.617Z,6.47
2018-06-02T20:52:44.065Z,5.27
2018-06-02T20:55:11.542Z,4.17
2018-06-02T20:57:38.984Z,4.60
2018-06-02T21:00:06.439Z,5.93
2018-06-02T21:02:33.882Z,5.90
2018-06-02T21:05:01.364Z,6.43
2018-06-02T21:07:29.094Z,5.17
2018-06-02T21:09:56.942Z,7.20
2018-06-02T21:12:24.413Z,5.20
2018-06-02T21:14:51.876Z,4.43
2018-06-02T21:17:19.323Z,4.37
2018-06-02T21:19:46.793Z,4.77
2018-06-02T21:22:14.297Z,4.93
2018-06-02T21:24:41.736Z,4.53
2018-06-02T21:27:09.174Z,4.00
2018-06-02T21:29:36.663Z,3.80
2018-06-02T21:32:04.177Z,3.57
2018-06-02T21:34:31.659Z,3.67
2018-06-02T21:36:59.217Z,3.83
2018-06-02T21:39:26.672Z,4.17
2018-06-02T21:41:54.144Z,4.13
2018-06-02T21:44:21.612Z,3.87
2018-06-02T21:46:49.072Z,3.90
2018-06-02T21:49:16.784Z,3.63
2018-06-02T21:51:44.252Z,3.70
2018-06-02T21:54:11.749Z,3.90
2018-06-02T21:56:39.198Z,3.37
2018-06-02T21:59:06.655Z,4.30
2018-06-02T22:01:34.119Z,3.97
2018-06-02T22:04:01.634Z,3.53
2018-06-02T22:06:29.090Z,3.53
2018-06-02T22:08:56.582Z,3.20
2018-06-02T22:11:24.100Z,3.50
2018-06-02T22:13:51.673Z,3.37
2018-06-02T22:16:19.590Z,3.53
2018-06-02T22:18:47.094Z,3.90
2018-06-02T22:21:14.536Z,3.70
2018-06-02T22:23:42.034Z,3.30
2018-06-02T22:26:09.525Z,4.30
2018-06-02T22:28:36.964Z,3.40
2018-06-02T22:31:04.430Z,3.40
2018-06-02T22:33:31.876Z,3.73
2018-06-02T22:35:59.321Z,3.33
2018-06-02T22:38:26.778Z,3.03
2018-06-02T22:40:54.290Z,2.90
2018-06-02T22:43:21.738Z,3.47
2018-06-02T22:45:49.184Z,3.47
2018-06-02T22:48:16.622Z,3.33
2018-06-02T22:50:44.250Z,3.00
2018-06-02T22:53:11.825Z,3.23
2018-06-02T22:55:39.322Z,5.13
2018-06-02T22:58:06.909Z,5.77
2018-06-02T23:00:34.404Z,3.57
2018-06-02T23:03:01.682Z,3.50
2018-06-02T23:05:28.953Z,4.40
2018-06-02T23:07:56.279Z,3.33
2018-06-02T23:10:23.540Z,3.67
2018-06-02T23:12:50.821Z,3.57
2018-06-02T23:15:18.092Z,3.57
2018-06-02T23:17:45.336Z,3.47
2018-06-02T23:20:12.604Z,3.30
2018-06-02T23:22:39.916Z,3.97
2018-06-02T23:25:07.242Z,3.77
2018-06-02T23:27:34.541Z,3.33
2018-06-02T23:30:01.907Z,3.37
2018-06-02T23:32:29.172Z,4.17
2018-06-02T23:34:56.450Z,5.20
2018-06-02T23:37:23.725Z,4.27
2018-06-02T23:39:50.996Z,5.23
2018-06-02T23:42:18.279Z,4.33
2018-06-02T23:44:45.544Z,3.27
2018-06-02T23:47:12.790Z,3.73
2018-06-02T23:49:40.085Z,4.30
2018-06-02T23:52:07.372Z,3.47
2018-06-02T23:54:34.621Z,3.60
2018-06-02T23:57:01.884Z,3.73
2018-06-02T23:59:29.139Z,3.20
